createdAt,value
2017-04-25T00:08:56.284Z,99.99
2017-04-25T00:18:56.258Z,99.99
2017-04-25T00:28:56.269Z,99.99
2017-04-25T00:38:56.275Z,99.99
2017-04-25T00:48:56.329Z,99.99
2017-04-25T00:58:56.290Z,99.99
2017-04-25T01:08:56.356Z,99.99
2017-04-25T01:18:56.308Z,99.99
2017-04-25T01:28:56.306Z,99.99
2017-04-25T01:38:56.332Z,99.99
2017-04-25T01:48:56.326Z,99.99
2017-04-25T01:58:56.334Z,99.99
2017-04-25T02:08:56.435Z,99.99
2017-04-25T02:18:56.382Z,99.99
2017-04-25T02:28:56.482Z,99.99
2017-04-25T02:38:56.629Z,99.99
2017-04-25T02:48:56.413Z,99.99
2017-04-25T02:58:56.384Z,99.99
2017-04-25T03:08:56.501Z,99.99
2017-04-25T03:18:56.456Z,99.99
2017-04-25T03:28:56.501Z,99.99
2017-04-25T03:38:56.461Z,99.99
2017-04-25T03:48:56.420Z,99.99
2017-04-25T03:58:56.503Z,99.99
2017-04-25T04:08:56.428Z,99.99
2017-04-25T04:18:56.536Z,99.99
2017-04-25T04:28:56.504Z,99.99
2017-04-25T04:38:56.484Z,99.99
2017-04-25T04:48:56.518Z,99.99
2017-04-25T04:58:56.475Z,99.99
2017-04-25T05:08:56.485Z,99.99
2017-04-25T05:18:56.598Z,99.99
2017-04-25T05:28:56.603Z,99.99
2017-04-25T05:38:56.543Z,99.99
2017-04-25T05:48:56.607Z,99.99
2017-04-25T05:58:56.529Z,99.99
2017-04-25T06:08:56.607Z,99.99
2017-04-25T06:18:56.536Z,99.99
2017-04-25T06:28:56.594Z,99.99
2017-04-25T06:38:56.619Z,99.99
2017-04-25T06:48:56.662Z,99.99
2017-04-25T06:58:56.607Z,99.99
2017-04-25T07:08:56.581Z,99.99
2017-04-25T07:18:56.793Z,99.99
2017-04-25T07:28:56.772Z,89.99
2017-04-25T07:39:02.182Z,80.04
2017-04-25T07:49:02.627Z,57.8
2017-04-25T07:58:56.636Z,50.07
2017-04-25T08:08:57.798Z,56.98
2017-04-25T08:18:56.655Z,63.32
2017-04-25T08:28:56.750Z,70.47
2017-04-25T08:38:56.715Z,66.37
2017-04-25T08:48:56.657Z,71.52
2017-04-25T08:58:56.728Z,70.69
2017-04-25T09:08:56.689Z,73.45
2017-04-25T09:18:56.761Z,72.27
2017-04-25T09:28:56.648Z,71.45
2017-04-25T09:38:56.690Z,73.77
2017-04-25T09:48:56.635Z,70.78
2017-04-25T09:58:56.743Z,71.55
2017-04-25T10:08:56.683Z,71.23
2017-04-25T10:18:56.645Z,71.36
2017-04-25T10:28:56.667Z,82.79
2017-04-25T10:38:56.721Z,82.23
2017-04-25T10:48:56.762Z,83.41
2017-04-25T10:58:56.686Z,80.12
2017-04-25T11:08:56.636Z,74.98
2017-04-25T11:18:56.696Z,97.03
2017-04-25T11:28:56.620Z,99.99
2017-04-25T11:38:56.721Z,99.99
2017-04-25T11:48:56.627Z,99.99
2017-04-25T11:58:58.052Z,99.99
2017-04-25T12:08:56.959Z,99.99
2017-04-25T12:18:57.035Z,99.22
2017-04-25T12:28:56.721Z,93.98
2017-04-25T12:38:56.657Z,81.65
2017-04-25T12:48:56.644Z,76.82
2017-04-25T12:58:56.651Z,68.63
2017-04-25T13:08:56.758Z,69.33
2017-04-25T13:18:56.641Z,63.39
2017-04-25T13:28:56.651Z,65.99
2017-04-25T13:38:56.644Z,67.61
2017-04-25T13:48:56.654Z,72.32
2017-04-25T13:58:56.777Z,73.58
2017-04-25T14:08:56.628Z,69.77
2017-04-25T14:18:56.651Z,67.86
2017-04-25T14:28:56.629Z,65.8
2017-04-25T14:38:56.641Z,70.09
2017-04-25T14:48:56.721Z,66.75
2017-04-25T14:58:56.622Z,60.17
2017-04-25T15:08:56.695Z,61.57
2017-04-25T15:18:56.647Z,62.81
2017-04-25T15:28:56.736Z,58.07
2017-04-25T15:38:56.634Z,54.8
2017-04-25T15:48:56.651Z,54.33
2017-04-25T15:58:56.619Z,54.8
2017-04-25T16:08:56.622Z,56.49
2017-04-25T16:18:56.841Z,60.88
2017-04-25T16:28:56.635Z,59.35
2017-04-25T16:38:56.698Z,60.37
2017-04-25T16:48:56.615Z,59.03
2017-04-25T16:58:56.731Z,61.32
2017-04-25T17:08:56.705Z,64.05
2017-04-25T17:18:56.631Z,64.53
2017-04-25T17:28:56.718Z,67.13
2017-04-25T17:38:56.628Z,70.33
2017-04-25T17:48:56.709Z,69.54
2017-04-25T17:58:56.647Z,73.4
2017-04-25T18:08:56.628Z,75.49
2017-04-25T18:18:56.721Z,76.4
2017-04-25T18:28:56.615Z,78.69
2017-04-25T18:38:56.619Z,80.02
2017-04-25T18:48:56.608Z,83.01
2017-04-25T18:58:56.801Z,84.44
2017-04-25T19:08:56.650Z,86.58
2017-04-25T19:18:56.801Z,89.62
2017-04-25T19:28:56.708Z,93.37
2017-04-25T19:38:56.599Z,99.39
2017-04-25T19:48:56.711Z,99.99
2017-04-25T19:58:56.599Z,99.99
2017-04-25T20:08:56.618Z,96.73
2017-04-25T20:18:56.762Z,95.88
2017-04-25T20:28:56.684Z,97.5
2017-04-25T20:38:56.647Z,95.6
2017-04-25T20:48:56.690Z,97.78
2017-04-25T20:58:56.660Z,98.54
2017-04-25T21:08:56.577Z,99.99
2017-04-25T21:18:56.664Z,99.99
2017-04-25T21:28:56.644Z,99.99
2017-04-25T21:38:56.692Z,99.99
2017-04-25T21:48:56.635Z,99.99
2017-04-25T21:58:56.600Z,99.99
2017-04-25T22:08:56.692Z,99.99
2017-04-25T22:18:56.541Z,99.99
2017-04-25T22:28:56.547Z,99.99
2017-04-25T22:38:56.551Z,99.99
2017-04-25T22:48:56.563Z,99.99
2017-04-25T22:58:56.614Z,99.99
2017-04-25T23:08:56.621Z,99.99
2017-04-25T23:18:56.551Z,99.99
2017-04-25T23:28:56.670Z,99.99
2017-04-25T23:38:56.618Z,99.99
2017-04-25T23:48:56.544Z,99.99
2017-04-25T23:58:56.662Z,99.99
